Airfield :
LOGIN :

Register | Disclaimer

   EN    FR    IT 

 










Legend :    VFR   Marginal VFR   IFR   Intensive IFR   Very Intensive IFR
Visi :
Ceiling :
>= 8 km
>= 3000ft
5 to 8 km
1000 to 3000 ft
1500m to 5 km
500 to 1000 ft
800 to 1500m
200 to 500 ft
< 800m
< 200 ft
Symbols :   Thunderstorms  Fog  Heavy snow  Heavy precipitations  Wind > 20 kt
SIGMETs :     Misc.  Thunderstorms  Icing  Turbulence  Mountain Waves  Volcanic Ashes







- Airport Elevation : -15 ft
- IATA code : RTM


EHRD - Rotterdam Zestienhoven

CURRENT METAR :
  • 221455Z AUTO 21009KT 170V230 9000 -SHRA SCT015CB SCT032 BKN042 12/11 Q1018 RERA TEMPO 7000

EXPIRED METARs :
  • 221425Z AUTO 21009KT 9999 -SHRA FEW015CB SCT042 BKN048 12/11 Q1018 REDZ NOSIG
  • 221355Z AUTO 23010KT 9999 -RA FEW015CB SCT041 13/09 Q1018 RERA REDZ NOSIG
  • 221325Z AUTO 23011KT 200V260 9999 -RADZ SCT015CB 12/10 Q1018 RERA REDZ NOSIG
  • 221255Z AUTO 22010KT 190V250 9999 DZ SCT015CB BKN029 BKN034 12/10 Q1018 NOSIG
  • 221225Z AUTO 23012KT 9999 +DZRA SCT015CB BKN039 BKN045 12/10 Q1019 NOSIG
  • 221155Z AUTO 23013KT 180V260 9999 -SHRA SCT015CB SCT041 BKN048 12/10 Q1019 REDZ NOSIG

TAF COR TAF EHRD
Valid from the 22 at 12:00 until the 23 at 18:00 UTC


221115Z 2212/2318 25014KT 9999 SCT030
TEMPO 2212/2214 7000 SHRA FEW025CB
BECMG 2214/2217 21006KT 7000 RA
BECMG 2223/2302 VRB03KT 9999 NSW
PROB30 2301/2308 5000 BR SCT005
BECMG 2308/2311 36007KT 6000 RA
BECMG 2312/2315 33010KT 9999 NSW
TEMPO 2315/2318 34015G25KT 6000 SHRA SCT020CB BKN030
No reported NOTAMs for that airfield.



MET'MAP, your aeronautical weather chart ! - Copyright ORBIFLY December 2007 - Disclaimer

ORBIFLY MET'MAP TEAM :

Programming & Development : Alexandra Zaïnal
Concept & Development : Baudouin d'Aumeries
Co-Development & Prog : Marc-Olivier Méhu
Technical & hardware support : Manuel Goepfert

Contact : metmap@orbifly.com




SOURCES & CREDITS :

   NOAA